sensor_id;sensor_type;location;lat;lon;timestamp;P1;durP1;ratioP1;P2;durP2;ratioP2
10365;SDS011;5229;41.820;23.490;2023-01-05T00:02:05;4.60;;;3.60;;
10365;SDS011;5229;41.820;23.490;2023-01-05T00:04:32;5.67;;;3.40;;
10365;SDS011;5229;41.820;23.490;2023-01-05T00:06:59;4.40;;;3.47;;
10365;SDS011;5229;41.820;23.490;2023-01-05T00:09:26;3.37;;;2.70;;
10365;SDS011;5229;41.820;23.490;2023-01-05T00:11:53;4.63;;;3.60;;
10365;SDS011;5229;41.820;23.490;2023-01-05T00:14:37;6.27;;;3.80;;
10365;SDS011;5229;41.820;23.490;2023-01-05T00:17:23;3.67;;;3.30;;
10365;SDS011;5229;41.820;23.490;2023-01-05T00:20:11;3.67;;;3.20;;
10365;SDS011;5229;41.820;23.490;2023-01-05T00:23:06;4.80;;;3.50;;
10365;SDS011;5229;41.820;23.490;2023-01-05T00:25:35;4.00;;;2.97;;
10365;SDS011;5229;41.820;23.490;2023-01-05T00:28:03;3.70;;;3.00;;
10365;SDS011;5229;41.820;23.490;2023-01-05T00:30:31;3.77;;;3.37;;
10365;SDS011;5229;41.820;23.490;2023-01-05T00:33:02;4.27;;;3.30;;
10365;SDS011;5229;41.820;23.490;2023-01-05T00:35:29;7.33;;;4.10;;
10365;SDS011;5229;41.820;23.490;2023-01-05T00:37:56;5.67;;;3.97;;
10365;SDS011;5229;41.820;23.490;2023-01-05T00:40:23;4.93;;;3.87;;
10365;SDS011;5229;41.820;23.490;2023-01-05T00:45:51;6.67;;;4.00;;
10365;SDS011;5229;41.820;23.490;2023-01-05T00:48:19;5.50;;;3.73;;
10365;SDS011;5229;41.820;23.490;2023-01-05T00:50:48;5.17;;;3.70;;
10365;SDS011;5229;41.820;23.490;2023-01-05T00:53:15;4.17;;;2.97;;
10365;SDS011;5229;41.820;23.490;2023-01-05T00:55:41;4.97;;;3.63;;
10365;SDS011;5229;41.820;23.490;2023-01-05T00:58:08;6.23;;;3.77;;
10365;SDS011;5229;41.820;23.490;2023-01-05T01:00:35;4.87;;;4.03;;
10365;SDS011;5229;41.820;23.490;2023-01-05T01:03:02;7.50;;;4.03;;
10365;SDS011;5229;41.820;23.490;2023-01-05T01:05:30;4.80;;;3.70;;
10365;SDS011;5229;41.820;23.490;2023-01-05T01:07:57;4.67;;;3.60;;
10365;SDS011;5229;41.820;23.490;2023-01-05T01:10:24;4.27;;;3.60;;
10365;SDS011;5229;41.820;23.490;2023-01-05T01:12:51;6.07;;;4.00;;
10365;SDS011;5229;41.820;23.490;2023-01-05T01:15:18;5.83;;;4.27;;
10365;SDS011;5229;41.820;23.490;2023-01-05T01:17:45;5.13;;;4.23;;
10365;SDS011;5229;41.820;23.490;2023-01-05T01:20:12;5.20;;;3.80;;
10365;SDS011;5229;41.820;23.490;2023-01-05T01:22:40;5.00;;;4.23;;
10365;SDS011;5229;41.820;23.490;2023-01-05T01:25:07;6.07;;;4.13;;
10365;SDS011;5229;41.820;23.490;2023-01-05T01:27:34;5.37;;;3.83;;
10365;SDS011;5229;41.820;23.490;2023-01-05T01:30:01;5.60;;;4.17;;
10365;SDS011;5229;41.820;23.490;2023-01-05T01:32:29;5.33;;;3.97;;
10365;SDS011;5229;41.820;23.490;2023-01-05T01:34:56;4.70;;;3.63;;
10365;SDS011;5229;41.820;23.490;2023-01-05T01:37:23;6.30;;;4.30;;
10365;SDS011;5229;41.820;23.490;2023-01-05T01:39:51;4.80;;;3.83;;
10365;SDS011;5229;41.820;23.490;2023-01-05T01:42:18;5.10;;;3.47;;
10365;SDS011;5229;41.820;23.490;2023-01-05T01:44:52;5.87;;;3.87;;
10365;SDS011;5229;41.820;23.490;2023-01-05T01:47:24;4.17;;;3.63;;
10365;SDS011;5229;41.820;23.490;2023-01-05T01:49:57;4.93;;;3.97;;
10365;SDS011;5229;41.820;23.490;2023-01-05T01:52:28;6.50;;;4.20;;
10365;SDS011;5229;41.820;23.490;2023-01-05T01:54:58;5.83;;;4.17;;
10365;SDS011;5229;41.820;23.490;2023-01-05T01:57:27;5.20;;;3.97;;
10365;SDS011;5229;41.820;23.490;2023-01-05T01:59:54;7.37;;;4.70;;
10365;SDS011;5229;41.820;23.490;2023-01-05T02:02:23;6.17;;;4.40;;
10365;SDS011;5229;41.820;23.490;2023-01-05T02:04:53;5.60;;;4.20;;
10365;SDS011;5229;41.820;23.490;2023-01-05T02:07:22;8.40;;;4.73;;
10365;SDS011;5229;41.820;23.490;2023-01-05T02:09:50;5.30;;;4.70;;
10365;SDS011;5229;41.820;23.490;2023-01-05T02:12:22;4.87;;;4.17;;
10365;SDS011;5229;41.820;23.490;2023-01-05T02:15:06;5.27;;;4.37;;
10365;SDS011;5229;41.820;23.490;2023-01-05T02:17:58;6.90;;;5.00;;
10365;SDS011;5229;41.820;23.490;2023-01-05T02:20:41;5.60;;;4.50;;
10365;SDS011;5229;41.820;23.490;2023-01-05T02:23:27;5.37;;;4.37;;
10365;SDS011;5229;41.820;23.490;2023-01-05T02:29:27;4.97;;;4.07;;
10365;SDS011;5229;41.820;23.490;2023-01-05T02:32:16;6.90;;;4.30;;
10365;SDS011;5229;41.820;23.490;2023-01-05T02:34:56;5.07;;;4.13;;
10365;SDS011;5229;41.820;23.490;2023-01-05T02:37:37;6.37;;;4.70;;
10365;SDS011;5229;41.820;23.490;2023-01-05T02:40:08;6.43;;;5.10;;
10365;SDS011;5229;41.820;23.490;2023-01-05T02:42:44;7.53;;;4.57;;
10365;SDS011;5229;41.820;23.490;2023-01-05T02:45:14;5.87;;;4.67;;
10365;SDS011;5229;41.820;23.490;2023-01-05T02:47:43;5.93;;;4.10;;
10365;SDS011;5229;41.820;23.490;2023-01-05T02:50:14;5.63;;;4.03;;
10365;SDS011;5229;41.820;23.490;2023-01-05T02:52:46;4.90;;;4.20;;
10365;SDS011;5229;41.820;23.490;2023-01-05T02:55:22;5.07;;;3.90;;
10365;SDS011;5229;41.820;23.490;2023-01-05T02:57:55;5.57;;;3.87;;
10365;SDS011;5229;41.820;23.490;2023-01-05T03:00:28;6.33;;;4.23;;
10365;SDS011;5229;41.820;23.490;2023-01-05T03:03:03;5.37;;;4.40;;
10365;SDS011;5229;41.820;23.490;2023-01-05T03:05:36;5.17;;;3.97;;
10365;SDS011;5229;41.820;23.490;2023-01-05T03:08:09;4.97;;;3.67;;
10365;SDS011;5229;41.820;23.490;2023-01-05T03:10:49;5.50;;;3.60;;
10365;SDS011;5229;41.820;23.490;2023-01-05T03:13:40;6.10;;;3.87;;
10365;SDS011;5229;41.820;23.490;2023-01-05T03:16:12;5.23;;;4.30;;
10365;SDS011;5229;41.820;23.490;2023-01-05T03:18:45;4.83;;;3.80;;
10365;SDS011;5229;41.820;23.490;2023-01-05T03:21:31;5.17;;;4.13;;
10365;SDS011;5229;41.820;23.490;2023-01-05T03:24:15;5.20;;;4.07;;
10365;SDS011;5229;41.820;23.490;2023-01-05T03:27:00;5.90;;;3.83;;
10365;SDS011;5229;41.820;23.490;2023-01-05T03:29:47;5.47;;;3.90;;
10365;SDS011;5229;41.820;23.490;2023-01-05T03:32:31;6.93;;;3.90;;
10365;SDS011;5229;41.820;23.490;2023-01-05T03:35:22;4.37;;;3.60;;
10365;SDS011;5229;41.820;23.490;2023-01-05T03:37:58;4.97;;;3.70;;
10365;SDS011;5229;41.820;23.490;2023-01-05T03:40:33;5.43;;;4.13;;
10365;SDS011;5229;41.820;23.490;2023-01-05T03:43:02;4.67;;;3.63;;
10365;SDS011;5229;41.820;23.490;2023-01-05T03:45:32;5.00;;;4.20;;
10365;SDS011;5229;41.820;23.490;2023-01-05T03:48:03;5.73;;;4.20;;
10365;SDS011;5229;41.820;23.490;2023-01-05T03:50:44;5.00;;;3.90;;
10365;SDS011;5229;41.820;23.490;2023-01-05T03:53:10;8.33;;;4.03;;
10365;SDS011;5229;41.820;23.490;2023-01-05T03:55:37;5.10;;;3.83;;
10365;SDS011;5229;41.820;23.490;2023-01-05T03:58:04;5.50;;;4.10;;
10365;SDS011;5229;41.820;23.490;2023-01-05T04:00:31;5.70;;;3.90;;
10365;SDS011;5229;41.820;23.490;2023-01-05T04:02:58;6.17;;;4.30;;
10365;SDS011;5229;41.820;23.490;2023-01-05T04:05:25;6.27;;;3.73;;
10365;SDS011;5229;41.820;23.490;2023-01-05T04:07:53;4.47;;;3.90;;
10365;SDS011;5229;41.820;23.490;2023-01-05T04:10:20;5.00;;;3.73;;
10365;SDS011;5229;41.820;23.490;2023-01-05T04:12:47;4.97;;;3.40;;
10365;SDS011;5229;41.820;23.490;2023-01-05T04:15:14;6.13;;;4.20;;
10365;SDS011;5229;41.820;23.490;2023-01-05T04:17:40;4.60;;;4.07;;
10365;SDS011;5229;41.820;23.490;2023-01-05T04:20:07;5.73;;;4.47;;
10365;SDS011;5229;41.820;23.490;2023-01-05T04:22:35;8.97;;;4.37;;
10365;SDS011;5229;41.820;23.490;2023-01-05T04:25:03;7.07;;;4.30;;
10365;SDS011;5229;41.820;23.490;2023-01-05T04:27:31;6.60;;;4.90;;
10365;SDS011;5229;41.820;23.490;2023-01-05T04:29:58;5.87;;;4.20;;
10365;SDS011;5229;41.820;23.490;2023-01-05T04:32:24;8.07;;;4.60;;
10365;SDS011;5229;41.820;23.490;2023-01-05T04:34:51;5.43;;;4.50;;
10365;SDS011;5229;41.820;23.490;2023-01-05T04:37:36;5.00;;;3.87;;
10365;SDS011;5229;41.820;23.490;2023-01-05T04:40:06;5.37;;;4.43;;
10365;SDS011;5229;41.820;23.490;2023-01-05T04:42:33;5.07;;;4.10;;
10365;SDS011;5229;41.820;23.490;2023-01-05T04:45:00;6.07;;;4.37;;
10365;SDS011;5229;41.820;23.490;2023-01-05T04:47:27;5.73;;;4.30;;
10365;SDS011;5229;41.820;23.490;2023-01-05T04:50:03;5.43;;;4.07;;
10365;SDS011;5229;41.820;23.490;2023-01-05T04:52:31;5.53;;;4.13;;
10365;SDS011;5229;41.820;23.490;2023-01-05T04:54:58;5.63;;;4.60;;
10365;SDS011;5229;41.820;23.490;2023-01-05T04:57:26;6.30;;;4.30;;
10365;SDS011;5229;41.820;23.490;2023-01-05T04:59:53;6.33;;;4.33;;
10365;SDS011;5229;41.820;23.490;2023-01-05T05:02:20;6.57;;;5.07;;
10365;SDS011;5229;41.820;23.490;2023-01-05T05:04:46;6.00;;;4.43;;
10365;SDS011;5229;41.820;23.490;2023-01-05T05:07:13;5.20;;;3.73;;
10365;SDS011;5229;41.820;23.490;2023-01-05T05:09:40;5.30;;;4.40;;
10365;SDS011;5229;41.820;23.490;2023-01-05T05:12:07;5.33;;;4.13;;
10365;SDS011;5229;41.820;23.490;2023-01-05T05:14:35;5.63;;;4.00;;
10365;SDS011;5229;41.820;23.490;2023-01-05T05:17:02;5.47;;;4.23;;
10365;SDS011;5229;41.820;23.490;2023-01-05T05:19:29;6.27;;;4.80;;
10365;SDS011;5229;41.820;23.490;2023-01-05T05:21:56;5.03;;;4.33;;
10365;SDS011;5229;41.820;23.490;2023-01-05T05:27:11;5.03;;;4.53;;
10365;SDS011;5229;41.820;23.490;2023-01-05T05:29:39;4.20;;;3.73;;
10365;SDS011;5229;41.820;23.490;2023-01-05T05:32:06;5.83;;;4.17;;
10365;SDS011;5229;41.820;23.490;2023-01-05T05:34:33;6.63;;;4.50;;
10365;SDS011;5229;41.820;23.490;2023-01-05T05:37:00;6.20;;;4.70;;
10365;SDS011;5229;41.820;23.490;2023-01-05T05:39:27;6.03;;;4.53;;
10365;SDS011;5229;41.820;23.490;2023-01-05T05:41:53;9.50;;;6.10;;
10365;SDS011;5229;41.820;23.490;2023-01-05T05:44:20;7.63;;;5.53;;
10365;SDS011;5229;41.820;23.490;2023-01-05T05:46:49;6.23;;;4.67;;
10365;SDS011;5229;41.820;23.490;2023-01-05T05:49:16;6.97;;;5.20;;
10365;SDS011;5229;41.820;23.490;2023-01-05T05:51:43;5.17;;;4.17;;
10365;SDS011;5229;41.820;23.490;2023-01-05T05:54:10;4.83;;;3.70;;
10365;SDS011;5229;41.820;23.490;2023-01-05T05:56:36;7.77;;;4.20;;
10365;SDS011;5229;41.820;23.490;2023-01-05T05:59:03;5.37;;;4.33;;
10365;SDS011;5229;41.820;23.490;2023-01-05T06:01:30;5.70;;;3.80;;
10365;SDS011;5229;41.820;23.490;2023-01-05T06:03:58;4.93;;;3.97;;
10365;SDS011;5229;41.820;23.490;2023-01-05T06:06:25;4.43;;;3.40;;
10365;SDS011;5229;41.820;23.490;2023-01-05T06:08:52;4.83;;;3.33;;
10365;SDS011;5229;41.820;23.490;2023-01-05T06:11:18;4.83;;;4.07;;
10365;SDS011;5229;41.820;23.490;2023-01-05T06:13:45;4.93;;;3.63;;
10365;SDS011;5229;41.820;23.490;2023-01-05T06:16:25;4.67;;;3.83;;
10365;SDS011;5229;41.820;23.490;2023-01-05T06:18:52;3.80;;;3.30;;
10365;SDS011;5229;41.820;23.490;2023-01-05T06:21:20;4.17;;;3.30;;
10365;SDS011;5229;41.820;23.490;2023-01-05T06:23:47;3.57;;;3.27;;
10365;SDS011;5229;41.820;23.490;2023-01-05T06:26:13;4.53;;;3.27;;
10365;SDS011;5229;41.820;23.490;2023-01-05T06:28:40;3.93;;;3.20;;
10365;SDS011;5229;41.820;23.490;2023-01-05T06:31:07;3.47;;;2.97;;
10365;SDS011;5229;41.820;23.490;2023-01-05T06:33:34;5.77;;;3.57;;
10365;SDS011;5229;41.820;23.490;2023-01-05T06:36:00;4.73;;;3.77;;
10365;SDS011;5229;41.820;23.490;2023-01-05T06:38:29;5.03;;;3.60;;
10365;SDS011;5229;41.820;23.490;2023-01-05T06:40:55;3.27;;;2.97;;
10365;SDS011;5229;41.820;23.490;2023-01-05T06:43:23;4.30;;;3.43;;
10365;SDS011;5229;41.820;23.490;2023-01-05T06:45:56;4.30;;;3.17;;
10365;SDS011;5229;41.820;23.490;2023-01-05T06:48:23;5.23;;;3.77;;
10365;SDS011;5229;41.820;23.490;2023-01-05T06:50:50;4.33;;;3.23;;
10365;SDS011;5229;41.820;23.490;2023-01-05T06:53:17;4.23;;;3.13;;
10365;SDS011;5229;41.820;23.490;2023-01-05T06:58:33;3.73;;;3.00;;
10365;SDS011;5229;41.820;23.490;2023-01-05T07:01:00;6.60;;;4.30;;
10365;SDS011;5229;41.820;23.490;2023-01-05T07:03:26;4.77;;;4.20;;
10365;SDS011;5229;41.820;23.490;2023-01-05T07:05:53;4.93;;;3.97;;
10365;SDS011;5229;41.820;23.490;2023-01-05T07:08:20;5.57;;;4.10;;
10365;SDS011;5229;41.820;23.490;2023-01-05T07:10:47;3.80;;;3.17;;
10365;SDS011;5229;41.820;23.490;2023-01-05T07:13:15;6.17;;;3.97;;
10365;SDS011;5229;41.820;23.490;2023-01-05T07:15:42;5.57;;;4.23;;
10365;SDS011;5229;41.820;23.490;2023-01-05T07:18:08;4.43;;;3.87;;
10365;SDS011;5229;41.820;23.490;2023-01-05T07:20:36;6.77;;;4.13;;
10365;SDS011;5229;41.820;23.490;2023-01-05T07:23:03;5.07;;;4.10;;
10365;SDS011;5229;41.820;23.490;2023-01-05T07:25:30;4.37;;;3.83;;
10365;SDS011;5229;41.820;23.490;2023-01-05T07:27:57;5.50;;;3.70;;
10365;SDS011;5229;41.820;23.490;2023-01-05T07:30:25;5.53;;;3.57;;
10365;SDS011;5229;41.820;23.490;2023-01-05T07:32:52;4.00;;;3.57;;
10365;SDS011;5229;41.820;23.490;2023-01-05T07:35:23;13.60;;;3.60;;
10365;SDS011;5229;41.820;23.490;2023-01-05T07:37:50;6.10;;;4.43;;
10365;SDS011;5229;41.820;23.490;2023-01-05T07:40:16;20.90;;;13.97;;
10365;SDS011;5229;41.820;23.490;2023-01-05T07:42:43;21.57;;;14.70;;
10365;SDS011;5229;41.820;23.490;2023-01-05T07:45:23;20.03;;;13.27;;
10365;SDS011;5229;41.820;23.490;2023-01-05T07:47:51;20.87;;;12.70;;
10365;SDS011;5229;41.820;23.490;2023-01-05T07:50:18;18.30;;;13.33;;
10365;SDS011;5229;41.820;23.490;2023-01-05T07:52:45;8.57;;;6.67;;
10365;SDS011;5229;41.820;23.490;2023-01-05T07:55:12;6.70;;;5.23;;
10365;SDS011;5229;41.820;23.490;2023-01-05T07:57:39;7.47;;;4.63;;
10365;SDS011;5229;41.820;23.490;2023-01-05T08:00:06;20.07;;;13.83;;
10365;SDS011;5229;41.820;23.490;2023-01-05T08:02:35;17.53;;;12.43;;
10365;SDS011;5229;41.820;23.490;2023-01-05T08:05:03;23.10;;;14.30;;
10365;SDS011;5229;41.820;23.490;2023-01-05T08:07:30;16.47;;;12.10;;
10365;SDS011;5229;41.820;23.490;2023-01-05T08:09:57;18.20;;;12.67;;
10365;SDS011;5229;41.820;23.490;2023-01-05T08:12:41;19.07;;;14.17;;
10365;SDS011;5229;41.820;23.490;2023-01-05T08:15:22;22.10;;;15.30;;
10365;SDS011;5229;41.820;23.490;2023-01-05T08:17:48;26.00;;;15.60;;
10365;SDS011;5229;41.820;23.490;2023-01-05T08:20:17;20.13;;;13.50;;
10365;SDS011;5229;41.820;23.490;2023-01-05T08:22:48;20.67;;;12.63;;
10365;SDS011;5229;41.820;23.490;2023-01-05T08:25:15;17.50;;;11.47;;
10365;SDS011;5229;41.820;23.490;2023-01-05T08:27:42;16.53;;;12.80;;
10365;SDS011;5229;41.820;23.490;2023-01-05T08:30:09;14.57;;;11.00;;
10365;SDS011;5229;41.820;23.490;2023-01-05T08:32:37;14.93;;;10.33;;
10365;SDS011;5229;41.820;23.490;2023-01-05T08:35:04;15.03;;;10.80;;
10365;SDS011;5229;41.820;23.490;2023-01-05T08:37:33;12.73;;;9.37;;
10365;SDS011;5229;41.820;23.490;2023-01-05T08:39:59;12.47;;;9.50;;
10365;SDS011;5229;41.820;23.490;2023-01-05T08:42:26;12.17;;;8.90;;
10365;SDS011;5229;41.820;23.490;2023-01-05T08:44:53;9.93;;;7.97;;
10365;SDS011;5229;41.820;23.490;2023-01-05T08:47:20;10.07;;;8.20;;
10365;SDS011;5229;41.820;23.490;2023-01-05T08:49:46;12.60;;;8.53;;
10365;SDS011;5229;41.820;23.490;2023-01-05T08:52:14;9.57;;;7.10;;
10365;SDS011;5229;41.820;23.490;2023-01-05T08:54:42;8.23;;;7.07;;
10365;SDS011;5229;41.820;23.490;2023-01-05T08:57:09;7.53;;;6.03;;
10365;SDS011;5229;41.820;23.490;2023-01-05T08:59:36;10.97;;;7.83;;
10365;SDS011;5229;41.820;23.490;2023-01-05T09:02:03;12.57;;;7.90;;
10365;SDS011;5229;41.820;23.490;2023-01-05T09:04:29;9.53;;;7.73;;
10365;SDS011;5229;41.820;23.490;2023-01-05T09:06:56;11.20;;;9.17;;
10365;SDS011;5229;41.820;23.490;2023-01-05T09:09:23;11.17;;;8.07;;
10365;SDS011;5229;41.820;23.490;2023-01-05T09:12:06;11.90;;;8.13;;
10365;SDS011;5229;41.820;23.490;2023-01-05T09:14:33;11.43;;;7.50;;
10365;SDS011;5229;41.820;23.490;2023-01-05T09:20:21;11.03;;;7.97;;
10365;SDS011;5229;41.820;23.490;2023-01-05T09:22:48;9.13;;;8.10;;
10365;SDS011;5229;41.820;23.490;2023-01-05T09:25:15;11.10;;;8.60;;
10365;SDS011;5229;41.820;23.490;2023-01-05T09:27:43;9.57;;;7.97;;
10365;SDS011;5229;41.820;23.490;2023-01-05T09:30:10;8.90;;;7.70;;
10365;SDS011;5229;41.820;23.490;2023-01-05T09:32:39;10.37;;;8.10;;
10365;SDS011;5229;41.820;23.490;2023-01-05T09:35:06;9.77;;;8.77;;
10365;SDS011;5229;41.820;23.490;2023-01-05T09:40:22;11.87;;;8.80;;
10365;SDS011;5229;41.820;23.490;2023-01-05T09:46:14;12.37;;;9.70;;
10365;SDS011;5229;41.820;23.490;2023-01-05T09:52:06;13.68;;;9.90;;
10365;SDS011;5229;41.820;23.490;2023-01-05T09:54:36;15.05;;;11.32;;
10365;SDS011;5229;41.820;23.490;2023-01-05T09:57:05;14.27;;;11.80;;
10365;SDS011;5229;41.820;23.490;2023-01-05T09:59:40;13.57;;;10.95;;
10365;SDS011;5229;41.820;23.490;2023-01-05T10:02:13;12.25;;;9.52;;
10365;SDS011;5229;41.820;23.490;2023-01-05T10:04:44;11.40;;;10.18;;
10365;SDS011;5229;41.820;23.490;2023-01-05T10:07:14;11.27;;;9.27;;
10365;SDS011;5229;41.820;23.490;2023-01-05T10:09:45;12.18;;;10.27;;
10365;SDS011;5229;41.820;23.490;2023-01-05T10:12:17;12.60;;;10.00;;
10365;SDS011;5229;41.820;23.490;2023-01-05T10:15:06;11.85;;;9.60;;
10365;SDS011;5229;41.820;23.490;2023-01-05T10:17:37;12.93;;;9.95;;
10365;SDS011;5229;41.820;23.490;2023-01-05T10:20:09;13.40;;;9.90;;
10365;SDS011;5229;41.820;23.490;2023-01-05T10:22:41;11.77;;;10.57;;
10365;SDS011;5229;41.820;23.490;2023-01-05T10:25:18;12.07;;;10.35;;
10365;SDS011;5229;41.820;23.490;2023-01-05T10:27:49;11.73;;;10.38;;
10365;SDS011;5229;41.820;23.490;2023-01-05T10:30:24;13.13;;;10.85;;
10365;SDS011;5229;41.820;23.490;2023-01-05T10:32:59;12.65;;;10.60;;
10365;SDS011;5229;41.820;23.490;2023-01-05T10:35:35;12.05;;;10.73;;
10365;SDS011;5229;41.820;23.490;2023-01-05T10:38:17;10.88;;;9.60;;
10365;SDS011;5229;41.820;23.490;2023-01-05T10:40:59;10.77;;;8.77;;
10365;SDS011;5229;41.820;23.490;2023-01-05T10:43:39;8.13;;;7.25;;
10365;SDS011;5229;41.820;23.490;2023-01-05T10:46:15;7.40;;;6.63;;
10365;SDS011;5229;41.820;23.490;2023-01-05T10:48:44;6.75;;;6.00;;
10365;SDS011;5229;41.820;23.490;2023-01-05T10:51:11;6.13;;;5.43;;
10365;SDS011;5229;41.820;23.490;2023-01-05T10:53:38;4.82;;;4.28;;
10365;SDS011;5229;41.820;23.490;2023-01-05T10:56:09;5.75;;;4.28;;
10365;SDS011;5229;41.820;23.490;2023-01-05T10:58:39;5.32;;;3.75;;
10365;SDS011;5229;41.820;23.490;2023-01-05T11:01:14;4.35;;;3.95;;
10365;SDS011;5229;41.820;23.490;2023-01-05T11:03:49;4.32;;;3.70;;
10365;SDS011;5229;41.820;23.490;2023-01-05T11:06:19;4.53;;;3.80;;
10365;SDS011;5229;41.820;23.490;2023-01-05T11:08:47;4.25;;;3.22;;
10365;SDS011;5229;41.820;23.490;2023-01-05T11:11:19;4.43;;;3.22;;
10365;SDS011;5229;41.820;23.490;2023-01-05T11:13:48;4.55;;;3.22;;
10365;SDS011;5229;41.820;23.490;2023-01-05T11:16:18;3.38;;;2.92;;
10365;SDS011;5229;41.820;23.490;2023-01-05T11:18:47;4.05;;;2.95;;
10365;SDS011;5229;41.820;23.490;2023-01-05T11:21:18;3.50;;;3.00;;
10365;SDS011;5229;41.820;23.490;2023-01-05T11:23:47;3.78;;;3.35;;
10365;SDS011;5229;41.820;23.490;2023-01-05T11:29:09;3.65;;;2.78;;
10365;SDS011;5229;41.820;23.490;2023-01-05T11:31:39;4.60;;;3.23;;
10365;SDS011;5229;41.820;23.490;2023-01-05T11:34:14;4.47;;;3.20;;
10365;SDS011;5229;41.820;23.490;2023-01-05T11:36:52;6.43;;;3.73;;
10365;SDS011;5229;41.820;23.490;2023-01-05T11:39:23;3.67;;;2.87;;
10365;SDS011;5229;41.820;23.490;2023-01-05T11:42:04;3.50;;;3.10;;
10365;SDS011;5229;41.820;23.490;2023-01-05T11:44:32;3.73;;;3.00;;
10365;SDS011;5229;41.820;23.490;2023-01-05T11:47:01;4.00;;;3.20;;
10365;SDS011;5229;41.820;23.490;2023-01-05T11:49:31;4.03;;;3.50;;
10365;SDS011;5229;41.820;23.490;2023-01-05T11:51:58;3.83;;;3.10;;
10365;SDS011;5229;41.820;23.490;2023-01-05T11:54:29;4.33;;;3.60;;
10365;SDS011;5229;41.820;23.490;2023-01-05T11:57:14;3.90;;;3.43;;
10365;SDS011;5229;41.820;23.490;2023-01-05T11:59:43;6.03;;;3.53;;
10365;SDS011;5229;41.820;23.490;2023-01-05T12:05:19;3.83;;;3.07;;
10365;SDS011;5229;41.820;23.490;2023-01-05T12:07:51;3.23;;;2.37;;
10365;SDS011;5229;41.820;23.490;2023-01-05T12:10:30;3.03;;;2.73;;
10365;SDS011;5229;41.820;23.490;2023-01-05T12:13:10;5.70;;;2.87;;
10365;SDS011;5229;41.820;23.490;2023-01-05T12:15:53;4.10;;;3.30;;
10365;SDS011;5229;41.820;23.490;2023-01-05T12:18:46;5.53;;;2.70;;
10365;SDS011;5229;41.820;23.490;2023-01-05T12:21:28;2.90;;;2.57;;
10365;SDS011;5229;41.820;23.490;2023-01-05T12:27:03;3.03;;;2.53;;
10365;SDS011;5229;41.820;23.490;2023-01-05T12:32:38;3.33;;;2.90;;
10365;SDS011;5229;41.820;23.490;2023-01-05T12:35:26;4.63;;;2.90;;
10365;SDS011;5229;41.820;23.490;2023-01-05T12:38:22;3.13;;;2.80;;
10365;SDS011;5229;41.820;23.490;2023-01-05T12:41:12;6.27;;;2.97;;
10365;SDS011;5229;41.820;23.490;2023-01-05T12:44:03;4.33;;;3.00;;
10365;SDS011;5229;41.820;23.490;2023-01-05T12:46:45;2.97;;;2.57;;
10365;SDS011;5229;41.820;23.490;2023-01-05T12:49:26;2.73;;;2.37;;
10365;SDS011;5229;41.820;23.490;2023-01-05T12:52:00;4.13;;;2.20;;
10365;SDS011;5229;41.820;23.490;2023-01-05T12:54:37;2.77;;;2.57;;
10365;SDS011;5229;41.820;23.490;2023-01-05T12:57:08;2.93;;;2.60;;
10365;SDS011;5229;41.820;23.490;2023-01-05T12:59:38;2.93;;;2.20;;
10365;SDS011;5229;41.820;23.490;2023-01-05T13:02:17;2.97;;;2.23;;
10365;SDS011;5229;41.820;23.490;2023-01-05T13:04:53;2.70;;;2.20;;
10365;SDS011;5229;41.820;23.490;2023-01-05T13:07:37;3.50;;;2.40;;
10365;SDS011;5229;41.820;23.490;2023-01-05T13:10:14;3.13;;;2.53;;
10365;SDS011;5229;41.820;23.490;2023-01-05T13:12:44;3.07;;;2.47;;
10365;SDS011;5229;41.820;23.490;2023-01-05T13:15:14;3.13;;;2.53;;
10365;SDS011;5229;41.820;23.490;2023-01-05T13:17:45;2.93;;;2.50;;
10365;SDS011;5229;41.820;23.490;2023-01-05T13:20:18;3.20;;;2.77;;
10365;SDS011;5229;41.820;23.490;2023-01-05T13:22:55;2.63;;;2.20;;
10365;SDS011;5229;41.820;23.490;2023-01-05T13:25:28;5.00;;;3.10;;
10365;SDS011;5229;41.820;23.490;2023-01-05T13:27:57;3.93;;;3.00;;
10365;SDS011;5229;41.820;23.490;2023-01-05T13:30:26;3.73;;;2.60;;
10365;SDS011;5229;41.820;23.490;2023-01-05T13:32:58;2.63;;;2.43;;
10365;SDS011;5229;41.820;23.490;2023-01-05T13:35:56;3.60;;;2.57;;
10365;SDS011;5229;41.820;23.490;2023-01-05T13:41:50;3.13;;;2.33;;
10365;SDS011;5229;41.820;23.490;2023-01-05T13:44:33;2.63;;;2.40;;
10365;SDS011;5229;41.820;23.490;2023-01-05T13:47:26;3.50;;;2.80;;
10365;SDS011;5229;41.820;23.490;2023-01-05T13:50:19;3.50;;;2.40;;
10365;SDS011;5229;41.820;23.490;2023-01-05T13:52:58;3.77;;;2.23;;
10365;SDS011;5229;41.820;23.490;2023-01-05T13:55:30;3.70;;;2.10;;
10365;SDS011;5229;41.820;23.490;2023-01-05T13:58:02;2.67;;;1.97;;
10365;SDS011;5229;41.820;23.490;2023-01-05T14:00:32;2.57;;;2.20;;
10365;SDS011;5229;41.820;23.490;2023-01-05T14:03:04;2.83;;;2.30;;
10365;SDS011;5229;41.820;23.490;2023-01-05T14:05:44;3.20;;;2.50;;
10365;SDS011;5229;41.820;23.490;2023-01-05T14:08:16;2.33;;;2.10;;
10365;SDS011;5229;41.820;23.490;2023-01-05T14:13:43;1.67;;;1.57;;
10365;SDS011;5229;41.820;23.490;2023-01-05T14:19:22;1.30;;;1.20;;
10365;SDS011;5229;41.820;23.490;2023-01-05T14:21:58;2.23;;;1.60;;
10365;SDS011;5229;41.820;23.490;2023-01-05T14:24:28;1.80;;;1.57;;
10365;SDS011;5229;41.820;23.490;2023-01-05T14:26:58;2.83;;;1.53;;
10365;SDS011;5229;41.820;23.490;2023-01-05T14:32:30;1.50;;;1.20;;
10365;SDS011;5229;41.820;23.490;2023-01-05T14:35:03;1.27;;;1.10;;
10365;SDS011;5229;41.820;23.490;2023-01-05T14:37:34;1.87;;;1.50;;
10365;SDS011;5229;41.820;23.490;2023-01-05T14:40:14;1.50;;;1.30;;
10365;SDS011;5229;41.820;23.490;2023-01-05T14:42:46;1.10;;;1.00;;
10365;SDS011;5229;41.820;23.490;2023-01-05T14:45:19;0.87;;;0.87;;
10365;SDS011;5229;41.820;23.490;2023-01-05T14:47:52;0.80;;;0.80;;
10365;SDS011;5229;41.820;23.490;2023-01-05T14:50:25;1.40;;;0.80;;
10365;SDS011;5229;41.820;23.490;2023-01-05T14:52:58;0.90;;;0.77;;
10365;SDS011;5229;41.820;23.490;2023-01-05T14:55:28;1.00;;;0.63;;
10365;SDS011;5229;41.820;23.490;2023-01-05T14:57:57;0.67;;;0.67;;
10365;SDS011;5229;41.820;23.490;2023-01-05T15:00:42;0.50;;;0.50;;
10365;SDS011;5229;41.820;23.490;2023-01-05T15:03:17;0.90;;;0.80;;
10365;SDS011;5229;41.820;23.490;2023-01-05T15:05:53;1.10;;;0.90;;
10365;SDS011;5229;41.820;23.490;2023-01-05T15:08:27;0.60;;;0.60;;
10365;SDS011;5229;41.820;23.490;2023-01-05T15:11:24;2.40;;;0.80;;
10365;SDS011;5229;41.820;23.490;2023-01-05T15:14:35;0.50;;;0.50;;
10365;SDS011;5229;41.820;23.490;2023-01-05T15:23:16;1.50;;;1.40;;
10365;SDS011;5229;41.820;23.490;2023-01-05T15:26:02;1.40;;;1.20;;
10365;SDS011;5229;41.820;23.490;2023-01-05T15:28:53;1.43;;;1.13;;
10365;SDS011;5229;41.820;23.490;2023-01-05T15:31:36;1.20;;;1.10;;
10365;SDS011;5229;41.820;23.490;2023-01-05T15:34:13;1.23;;;1.00;;
10365;SDS011;5229;41.820;23.490;2023-01-05T15:36:46;4.50;;;1.00;;
10365;SDS011;5229;41.820;23.490;2023-01-05T15:39:23;1.50;;;0.97;;
10365;SDS011;5229;41.820;23.490;2023-01-05T15:41:53;0.50;;;0.43;;
10365;SDS011;5229;41.820;23.490;2023-01-05T15:44:28;0.80;;;0.70;;
10365;SDS011;5229;41.820;23.490;2023-01-05T15:47:00;0.60;;;0.60;;
10365;SDS011;5229;41.820;23.490;2023-01-05T15:49:29;0.40;;;0.40;;
10365;SDS011;5229;41.820;23.490;2023-01-05T15:51:59;0.20;;;0.20;;
10365;SDS011;5229;41.820;23.490;2023-01-05T15:54:27;0.77;;;0.77;;
10365;SDS011;5229;41.820;23.490;2023-01-05T15:56:55;0.40;;;0.40;;
10365;SDS011;5229;41.820;23.490;2023-01-05T15:59:26;0.50;;;0.50;;
10365;SDS011;5229;41.820;23.490;2023-01-05T16:01:56;1.50;;;0.30;;
10365;SDS011;5229;41.820;23.490;2023-01-05T16:04:23;0.50;;;0.47;;
10365;SDS011;5229;41.820;23.490;2023-01-05T16:06:51;0.63;;;0.40;;
10365;SDS011;5229;41.820;23.490;2023-01-05T16:09:24;2.20;;;0.73;;